sensor_id;sensor_type;location;lat;lon;timestamp;P1;durP1;ratioP1;P2;durP2;ratioP2
12814;SDS011;6472;52.328;13.070;2024-01-15T00:02:23;9.53;;;6.00;;
12814;SDS011;6472;52.328;13.070;2024-01-15T00:04:51;12.70;;;5.50;;
12814;SDS011;6472;52.328;13.070;2024-01-15T00:07:19;7.70;;;5.23;;
12814;SDS011;6472;52.328;13.070;2024-01-15T00:09:48;10.07;;;5.40;;
12814;SDS011;6472;52.328;13.070;2024-01-15T00:12:16;13.03;;;6.37;;
12814;SDS011;6472;52.328;13.070;2024-01-15T00:14:44;10.20;;;6.70;;
12814;SDS011;6472;52.328;13.070;2024-01-15T00:17:13;8.80;;;5.10;;
12814;SDS011;6472;52.328;13.070;2024-01-15T00:19:41;9.47;;;5.47;;
12814;SDS011;6472;52.328;13.070;2024-01-15T00:22:09;9.47;;;5.97;;
12814;SDS011;6472;52.328;13.070;2024-01-15T00:24:37;10.57;;;6.60;;
12814;SDS011;6472;52.328;13.070;2024-01-15T00:27:05;8.37;;;5.67;;
12814;SDS011;6472;52.328;13.070;2024-01-15T00:29:33;10.43;;;5.77;;
12814;SDS011;6472;52.328;13.070;2024-01-15T00:32:01;9.90;;;5.83;;
12814;SDS011;6472;52.328;13.070;2024-01-15T00:34:31;12.30;;;7.03;;
12814;SDS011;6472;52.328;13.070;2024-01-15T00:37:00;10.73;;;6.23;;
12814;SDS011;6472;52.328;13.070;2024-01-15T00:39:29;11.40;;;5.67;;
12814;SDS011;6472;52.328;13.070;2024-01-15T00:41:57;11.10;;;5.70;;
12814;SDS011;6472;52.328;13.070;2024-01-15T00:44:25;9.90;;;5.83;;
12814;SDS011;6472;52.328;13.070;2024-01-15T00:46:53;10.17;;;6.63;;
12814;SDS011;6472;52.328;13.070;2024-01-15T00:49:21;14.73;;;6.30;;
12814;SDS011;6472;52.328;13.070;2024-01-15T00:51:50;11.60;;;6.47;;
12814;SDS011;6472;52.328;13.070;2024-01-15T00:54:18;11.10;;;6.30;;
12814;SDS011;6472;52.328;13.070;2024-01-15T00:56:46;11.47;;;5.23;;
12814;SDS011;6472;52.328;13.070;2024-01-15T00:59:14;13.03;;;6.17;;
12814;SDS011;6472;52.328;13.070;2024-01-15T01:01:43;12.50;;;6.50;;
12814;SDS011;6472;52.328;13.070;2024-01-15T01:04:12;12.60;;;5.97;;
12814;SDS011;6472;52.328;13.070;2024-01-15T01:06:40;9.47;;;5.70;;
12814;SDS011;6472;52.328;13.070;2024-01-15T01:09:09;12.13;;;5.87;;
12814;SDS011;6472;52.328;13.070;2024-01-15T01:11:37;11.33;;;6.17;;
12814;SDS011;6472;52.328;13.070;2024-01-15T01:14:05;10.13;;;5.93;;
12814;SDS011;6472;52.328;13.070;2024-01-15T01:16:33;13.63;;;6.67;;
12814;SDS011;6472;52.328;13.070;2024-01-15T01:19:05;11.17;;;6.00;;
12814;SDS011;6472;52.328;13.070;2024-01-15T01:21:34;11.87;;;5.63;;
12814;SDS011;6472;52.328;13.070;2024-01-15T01:24:02;11.80;;;6.17;;
12814;SDS011;6472;52.328;13.070;2024-01-15T01:26:32;11.17;;;6.67;;
12814;SDS011;6472;52.328;13.070;2024-01-15T01:29:00;7.13;;;4.57;;
12814;SDS011;6472;52.328;13.070;2024-01-15T01:31:28;9.80;;;5.17;;
12814;SDS011;6472;52.328;13.070;2024-01-15T01:33:56;12.73;;;5.97;;
12814;SDS011;6472;52.328;13.070;2024-01-15T01:36:24;10.40;;;6.33;;
12814;SDS011;6472;52.328;13.070;2024-01-15T01:38:53;11.87;;;5.53;;
12814;SDS011;6472;52.328;13.070;2024-01-15T01:41:20;9.23;;;5.73;;
12814;SDS011;6472;52.328;13.070;2024-01-15T01:43:51;11.37;;;5.90;;
12814;SDS011;6472;52.328;13.070;2024-01-15T01:46:19;10.90;;;6.10;;
12814;SDS011;6472;52.328;13.070;2024-01-15T01:48:47;11.37;;;7.00;;
12814;SDS011;6472;52.328;13.070;2024-01-15T01:51:15;11.10;;;6.37;;
12814;SDS011;6472;52.328;13.070;2024-01-15T01:53:44;11.93;;;6.90;;
12814;SDS011;6472;52.328;13.070;2024-01-15T01:56:12;12.53;;;6.43;;
12814;SDS011;6472;52.328;13.070;2024-01-15T01:58:41;5.43;;;3.50;;
12814;SDS011;6472;52.328;13.070;2024-01-15T02:01:11;10.53;;;5.53;;
12814;SDS011;6472;52.328;13.070;2024-01-15T02:03:40;11.37;;;5.60;;
12814;SDS011;6472;52.328;13.070;2024-01-15T02:06:08;10.13;;;6.03;;
12814;SDS011;6472;52.328;13.070;2024-01-15T02:08:36;14.30;;;6.40;;
12814;SDS011;6472;52.328;13.070;2024-01-15T02:11:04;13.97;;;7.73;;
12814;SDS011;6472;52.328;13.070;2024-01-15T02:13:33;10.73;;;5.93;;
12814;SDS011;6472;52.328;13.070;2024-01-15T02:16:01;16.17;;;5.73;;
12814;SDS011;6472;52.328;13.070;2024-01-15T02:18:30;10.47;;;5.50;;
12814;SDS011;6472;52.328;13.070;2024-01-15T02:21:07;9.87;;;4.97;;
12814;SDS011;6472;52.328;13.070;2024-01-15T02:23:36;12.90;;;6.03;;
12814;SDS011;6472;52.328;13.070;2024-01-15T02:26:05;7.97;;;5.43;;
12814;SDS011;6472;52.328;13.070;2024-01-15T02:28:33;9.63;;;5.97;;
12814;SDS011;6472;52.328;13.070;2024-01-15T02:31:01;9.83;;;5.90;;
12814;SDS011;6472;52.328;13.070;2024-01-15T02:33:29;12.43;;;5.57;;
12814;SDS011;6472;52.328;13.070;2024-01-15T02:35:58;11.70;;;6.20;;
12814;SDS011;6472;52.328;13.070;2024-01-15T02:38:25;13.87;;;6.40;;
12814;SDS011;6472;52.328;13.070;2024-01-15T02:40:55;10.77;;;5.87;;
12814;SDS011;6472;52.328;13.070;2024-01-15T02:43:23;8.77;;;5.80;;
12814;SDS011;6472;52.328;13.070;2024-01-15T02:45:50;12.90;;;5.90;;
12814;SDS011;6472;52.328;13.070;2024-01-15T02:48:19;9.50;;;4.73;;
12814;SDS011;6472;52.328;13.070;2024-01-15T02:50:47;14.63;;;5.27;;
12814;SDS011;6472;52.328;13.070;2024-01-15T02:53:15;12.97;;;6.10;;
12814;SDS011;6472;52.328;13.070;2024-01-15T02:55:42;9.10;;;5.77;;
12814;SDS011;6472;52.328;13.070;2024-01-15T02:58:12;9.87;;;5.40;;
12814;SDS011;6472;52.328;13.070;2024-01-15T03:00:40;6.77;;;4.17;;
12814;SDS011;6472;52.328;13.070;2024-01-15T03:03:09;9.83;;;5.87;;
12814;SDS011;6472;52.328;13.070;2024-01-15T03:05:37;11.93;;;4.67;;
12814;SDS011;6472;52.328;13.070;2024-01-15T03:08:05;11.40;;;5.57;;
12814;SDS011;6472;52.328;13.070;2024-01-15T03:10:33;8.67;;;5.03;;
12814;SDS011;6472;52.328;13.070;2024-01-15T03:13:01;10.77;;;5.27;;
12814;SDS011;6472;52.328;13.070;2024-01-15T03:15:30;6.60;;;4.27;;
12814;SDS011;6472;52.328;13.070;2024-01-15T03:17:58;12.47;;;5.90;;
12814;SDS011;6472;52.328;13.070;2024-01-15T03:20:26;12.93;;;5.03;;
12814;SDS011;6472;52.328;13.070;2024-01-15T03:22:54;10.40;;;4.77;;
12814;SDS011;6472;52.328;13.070;2024-01-15T03:25:22;8.70;;;4.60;;
12814;SDS011;6472;52.328;13.070;2024-01-15T03:27:50;7.50;;;4.83;;
12814;SDS011;6472;52.328;13.070;2024-01-15T03:30:18;8.27;;;4.33;;
12814;SDS011;6472;52.328;13.070;2024-01-15T03:32:47;6.93;;;4.17;;
12814;SDS011;6472;52.328;13.070;2024-01-15T03:35:16;8.13;;;4.47;;
12814;SDS011;6472;52.328;13.070;2024-01-15T03:37:44;8.47;;;4.00;;
12814;SDS011;6472;52.328;13.070;2024-01-15T03:40:12;9.40;;;4.60;;
12814;SDS011;6472;52.328;13.070;2024-01-15T03:42:43;7.87;;;4.00;;
12814;SDS011;6472;52.328;13.070;2024-01-15T03:45:11;9.70;;;4.63;;
12814;SDS011;6472;52.328;13.070;2024-01-15T03:47:39;9.33;;;4.60;;
12814;SDS011;6472;52.328;13.070;2024-01-15T03:50:09;11.77;;;4.20;;
12814;SDS011;6472;52.328;13.070;2024-01-15T03:52:37;7.17;;;4.63;;
12814;SDS011;6472;52.328;13.070;2024-01-15T03:55:05;6.80;;;3.67;;
12814;SDS011;6472;52.328;13.070;2024-01-15T03:57:33;6.13;;;3.50;;
12814;SDS011;6472;52.328;13.070;2024-01-15T04:00:01;7.37;;;3.53;;
12814;SDS011;6472;52.328;13.070;2024-01-15T04:02:30;5.30;;;3.43;;
12814;SDS011;6472;52.328;13.070;2024-01-15T04:04:58;6.90;;;3.80;;
12814;SDS011;6472;52.328;13.070;2024-01-15T04:07:28;5.60;;;3.73;;
12814;SDS011;6472;52.328;13.070;2024-01-15T04:09:56;7.33;;;3.70;;
12814;SDS011;6472;52.328;13.070;2024-01-15T04:12:23;8.73;;;3.80;;
12814;SDS011;6472;52.328;13.070;2024-01-15T04:14:51;8.87;;;3.73;;
12814;SDS011;6472;52.328;13.070;2024-01-15T04:17:19;5.63;;;3.40;;
12814;SDS011;6472;52.328;13.070;2024-01-15T04:19:48;4.70;;;3.00;;
12814;SDS011;6472;52.328;13.070;2024-01-15T04:22:16;8.93;;;4.10;;
12814;SDS011;6472;52.328;13.070;2024-01-15T04:24:45;8.00;;;3.77;;
12814;SDS011;6472;52.328;13.070;2024-01-15T04:27:14;7.17;;;2.77;;
12814;SDS011;6472;52.328;13.070;2024-01-15T04:29:42;10.23;;;3.30;;
12814;SDS011;6472;52.328;13.070;2024-01-15T04:32:10;3.90;;;2.67;;
12814;SDS011;6472;52.328;13.070;2024-01-15T04:34:38;9.67;;;4.30;;
12814;SDS011;6472;52.328;13.070;2024-01-15T04:37:07;3.47;;;2.23;;
12814;SDS011;6472;52.328;13.070;2024-01-15T04:39:35;9.50;;;3.00;;
12814;SDS011;6472;52.328;13.070;2024-01-15T04:42:04;10.37;;;3.27;;
12814;SDS011;6472;52.328;13.070;2024-01-15T04:44:32;8.30;;;3.03;;
12814;SDS011;6472;52.328;13.070;2024-01-15T04:47:00;7.77;;;3.10;;
12814;SDS011;6472;52.328;13.070;2024-01-15T04:49:28;5.50;;;2.70;;
12814;SDS011;6472;52.328;13.070;2024-01-15T04:51:56;3.27;;;2.37;;
12814;SDS011;6472;52.328;13.070;2024-01-15T04:54:24;4.47;;;2.93;;
12814;SDS011;6472;52.328;13.070;2024-01-15T04:56:52;9.50;;;3.20;;
12814;SDS011;6472;52.328;13.070;2024-01-15T04:59:21;3.00;;;2.10;;
12814;SDS011;6472;52.328;13.070;2024-01-15T05:01:49;6.37;;;2.97;;
12814;SDS011;6472;52.328;13.070;2024-01-15T05:04:18;5.97;;;2.83;;
12814;SDS011;6472;52.328;13.070;2024-01-15T05:06:46;4.27;;;2.50;;
12814;SDS011;6472;52.328;13.070;2024-01-15T05:09:14;4.80;;;2.83;;
12814;SDS011;6472;52.328;13.070;2024-01-15T05:11:42;4.47;;;2.67;;
12814;SDS011;6472;52.328;13.070;2024-01-15T05:14:10;4.97;;;2.53;;
12814;SDS011;6472;52.328;13.070;2024-01-15T05:16:39;3.10;;;2.13;;
12814;SDS011;6472;52.328;13.070;2024-01-15T05:19:08;8.13;;;2.63;;
12814;SDS011;6472;52.328;13.070;2024-01-15T05:21:36;5.77;;;2.83;;
12814;SDS011;6472;52.328;13.070;2024-01-15T05:24:04;9.20;;;2.50;;
12814;SDS011;6472;52.328;13.070;2024-01-15T05:26:32;4.43;;;2.70;;
12814;SDS011;6472;52.328;13.070;2024-01-15T05:29:00;5.30;;;2.20;;
12814;SDS011;6472;52.328;13.070;2024-01-15T05:31:28;10.40;;;2.57;;
12814;SDS011;6472;52.328;13.070;2024-01-15T05:33:58;4.63;;;2.50;;
12814;SDS011;6472;52.328;13.070;2024-01-15T05:36:26;4.40;;;2.40;;
12814;SDS011;6472;52.328;13.070;2024-01-15T05:38:54;7.40;;;3.07;;
12814;SDS011;6472;52.328;13.070;2024-01-15T05:41:22;4.20;;;2.53;;
12814;SDS011;6472;52.328;13.070;2024-01-15T05:43:50;4.30;;;2.33;;
12814;SDS011;6472;52.328;13.070;2024-01-15T05:46:18;3.87;;;2.30;;
12814;SDS011;6472;52.328;13.070;2024-01-15T05:48:46;7.57;;;2.37;;
12814;SDS011;6472;52.328;13.070;2024-01-15T05:51:15;7.03;;;1.87;;
12814;SDS011;6472;52.328;13.070;2024-01-15T05:53:43;3.13;;;2.00;;
12814;SDS011;6472;52.328;13.070;2024-01-15T05:56:13;3.83;;;2.43;;
12814;SDS011;6472;52.328;13.070;2024-01-15T05:58:42;1.83;;;1.73;;
12814;SDS011;6472;52.328;13.070;2024-01-15T06:01:10;3.67;;;2.30;;
12814;SDS011;6472;52.328;13.070;2024-01-15T06:03:38;3.07;;;1.63;;
12814;SDS011;6472;52.328;13.070;2024-01-15T06:06:06;4.17;;;2.00;;
12814;SDS011;6472;52.328;13.070;2024-01-15T06:08:37;4.50;;;1.57;;
12814;SDS011;6472;52.328;13.070;2024-01-15T06:11:05;3.53;;;1.47;;
12814;SDS011;6472;52.328;13.070;2024-01-15T06:13:34;2.97;;;1.70;;
12814;SDS011;6472;52.328;13.070;2024-01-15T06:16:02;5.60;;;2.23;;
12814;SDS011;6472;52.328;13.070;2024-01-15T06:18:32;10.43;;;2.10;;
12814;SDS011;6472;52.328;13.070;2024-01-15T06:21:00;4.90;;;2.33;;
12814;SDS011;6472;52.328;13.070;2024-01-15T06:23:31;5.10;;;2.60;;
12814;SDS011;6472;52.328;13.070;2024-01-15T06:27:01;2.53;;;2.10;;
12814;SDS011;6472;52.328;13.070;2024-01-15T06:29:29;5.03;;;2.10;;
12814;SDS011;6472;52.328;13.070;2024-01-15T06:31:57;4.87;;;1.50;;
12814;SDS011;6472;52.328;13.070;2024-01-15T06:34:25;4.03;;;1.70;;
12814;SDS011;6472;52.328;13.070;2024-01-15T06:36:53;5.90;;;1.67;;
12814;SDS011;6472;52.328;13.070;2024-01-15T06:39:21;4.80;;;1.83;;
12814;SDS011;6472;52.328;13.070;2024-01-15T06:41:49;3.70;;;1.93;;
12814;SDS011;6472;52.328;13.070;2024-01-15T06:44:18;2.50;;;1.60;;
12814;SDS011;6472;52.328;13.070;2024-01-15T06:46:47;4.13;;;1.43;;
12814;SDS011;6472;52.328;13.070;2024-01-15T06:49:16;3.70;;;1.40;;
12814;SDS011;6472;52.328;13.070;2024-01-15T06:51:44;2.97;;;1.60;;
12814;SDS011;6472;52.328;13.070;2024-01-15T06:54:15;10.73;;;1.87;;
12814;SDS011;6472;52.328;13.070;2024-01-15T06:56:43;4.83;;;1.37;;
12814;SDS011;6472;52.328;13.070;2024-01-15T06:59:11;5.53;;;1.70;;
12814;SDS011;6472;52.328;13.070;2024-01-15T07:01:42;1.83;;;1.17;;
12814;SDS011;6472;52.328;13.070;2024-01-15T07:04:10;1.77;;;1.40;;
12814;SDS011;6472;52.328;13.070;2024-01-15T07:06:38;5.17;;;1.13;;
12814;SDS011;6472;52.328;13.070;2024-01-15T07:09:07;3.43;;;1.27;;
12814;SDS011;6472;52.328;13.070;2024-01-15T07:11:35;5.13;;;1.30;;
12814;SDS011;6472;52.328;13.070;2024-01-15T07:14:03;1.83;;;1.17;;
12814;SDS011;6472;52.328;13.070;2024-01-15T07:16:31;3.30;;;1.40;;
12814;SDS011;6472;52.328;13.070;2024-01-15T07:19:05;4.53;;;1.23;;
12814;SDS011;6472;52.328;13.070;2024-01-15T07:21:33;1.77;;;1.37;;
12814;SDS011;6472;52.328;13.070;2024-01-15T07:24:01;1.67;;;0.90;;
12814;SDS011;6472;52.328;13.070;2024-01-15T07:26:30;2.33;;;1.10;;
12814;SDS011;6472;52.328;13.070;2024-01-15T07:28:58;0.97;;;0.83;;
12814;SDS011;6472;52.328;13.070;2024-01-15T07:31:26;15.50;;;3.60;;
12814;SDS011;6472;52.328;13.070;2024-01-15T07:33:55;3.40;;;1.30;;
12814;SDS011;6472;52.328;13.070;2024-01-15T07:39:56;5.23;;;2.00;;
12814;SDS011;6472;52.328;13.070;2024-01-15T07:42:24;3.70;;;1.70;;
12814;SDS011;6472;52.328;13.070;2024-01-15T07:44:52;2.37;;;1.07;;
12814;SDS011;6472;52.328;13.070;2024-01-15T07:47:20;1.83;;;1.67;;
12814;SDS011;6472;52.328;13.070;2024-01-15T07:49:48;2.57;;;1.40;;
12814;SDS011;6472;52.328;13.070;2024-01-15T07:52:17;4.33;;;1.40;;
12814;SDS011;6472;52.328;13.070;2024-01-15T07:54:45;4.70;;;1.37;;
12814;SDS011;6472;52.328;13.070;2024-01-15T07:57:14;2.70;;;1.60;;
12814;SDS011;6472;52.328;13.070;2024-01-15T07:59:42;5.50;;;1.33;;
12814;SDS011;6472;52.328;13.070;2024-01-15T08:02:10;2.73;;;1.30;;
12814;SDS011;6472;52.328;13.070;2024-01-15T08:04:38;3.90;;;1.53;;
12814;SDS011;6472;52.328;13.070;2024-01-15T08:07:07;3.63;;;1.83;;
12814;SDS011;6472;52.328;13.070;2024-01-15T08:09:35;8.80;;;1.50;;
12814;SDS011;6472;52.328;13.070;2024-01-15T08:12:03;4.10;;;1.37;;
12814;SDS011;6472;52.328;13.070;2024-01-15T08:14:33;5.40;;;1.50;;
12814;SDS011;6472;52.328;13.070;2024-01-15T08:17:01;3.43;;;1.53;;
12814;SDS011;6472;52.328;13.070;2024-01-15T08:19:29;0.70;;;0.70;;
12814;SDS011;6472;52.328;13.070;2024-01-15T08:21:58;3.67;;;1.03;;
12814;SDS011;6472;52.328;13.070;2024-01-15T08:24:26;7.73;;;1.43;;
12814;SDS011;6472;52.328;13.070;2024-01-15T08:26:54;3.10;;;1.43;;
12814;SDS011;6472;52.328;13.070;2024-01-15T08:29:23;2.60;;;0.93;;
12814;SDS011;6472;52.328;13.070;2024-01-15T08:31:53;3.07;;;1.07;;
12814;SDS011;6472;52.328;13.070;2024-01-15T08:34:21;3.60;;;1.50;;
12814;SDS011;6472;52.328;13.070;2024-01-15T08:36:49;2.93;;;1.37;;
12814;SDS011;6472;52.328;13.070;2024-01-15T08:39:17;3.20;;;1.40;;
12814;SDS011;6472;52.328;13.070;2024-01-15T08:41:45;6.70;;;1.50;;
12814;SDS011;6472;52.328;13.070;2024-01-15T08:44:14;2.83;;;1.13;;
12814;SDS011;6472;52.328;13.070;2024-01-15T08:46:42;4.20;;;1.57;;
12814;SDS011;6472;52.328;13.070;2024-01-15T08:49:12;4.07;;;1.10;;
12814;SDS011;6472;52.328;13.070;2024-01-15T08:51:40;3.77;;;1.60;;
12814;SDS011;6472;52.328;13.070;2024-01-15T08:54:08;7.50;;;1.97;;
12814;SDS011;6472;52.328;13.070;2024-01-15T08:56:36;2.77;;;1.23;;
12814;SDS011;6472;52.328;13.070;2024-01-15T08:59:05;1.60;;;1.00;;
12814;SDS011;6472;52.328;13.070;2024-01-15T09:01:34;5.17;;;1.47;;
12814;SDS011;6472;52.328;13.070;2024-01-15T09:04:02;2.50;;;1.40;;
12814;SDS011;6472;52.328;13.070;2024-01-15T09:06:31;3.63;;;1.53;;
12814;SDS011;6472;52.328;13.070;2024-01-15T09:08:59;3.13;;;1.53;;
12814;SDS011;6472;52.328;13.070;2024-01-15T09:11:27;5.00;;;1.50;;
12814;SDS011;6472;52.328;13.070;2024-01-15T09:13:55;3.60;;;1.23;;
12814;SDS011;6472;52.328;13.070;2024-01-15T09:16:23;1.60;;;1.50;;
12814;SDS011;6472;52.328;13.070;2024-01-15T09:18:51;3.27;;;1.33;;
12814;SDS011;6472;52.328;13.070;2024-01-15T09:21:19;5.53;;;1.33;;
12814;SDS011;6472;52.328;13.070;2024-01-15T09:23:49;4.90;;;1.17;;
12814;SDS011;6472;52.328;13.070;2024-01-15T09:26:17;2.30;;;1.03;;
12814;SDS011;6472;52.328;13.070;2024-01-15T09:28:45;4.00;;;1.20;;
12814;SDS011;6472;52.328;13.070;2024-01-15T09:31:13;2.93;;;1.47;;
12814;SDS011;6472;52.328;13.070;2024-01-15T09:36:59;6.13;;;1.20;;
12814;SDS011;6472;52.328;13.070;2024-01-15T09:39:30;4.40;;;1.30;;
12814;SDS011;6472;52.328;13.070;2024-01-15T09:41:58;2.53;;;1.20;;
12814;SDS011;6472;52.328;13.070;2024-01-15T09:44:26;2.30;;;1.57;;
12814;SDS011;6472;52.328;13.070;2024-01-15T09:46:56;1.80;;;1.47;;
12814;SDS011;6472;52.328;13.070;2024-01-15T09:49:25;1.80;;;1.27;;
12814;SDS011;6472;52.328;13.070;2024-01-15T09:51:53;1.63;;;1.53;;
12814;SDS011;6472;52.328;13.070;2024-01-15T09:54:38;1.43;;;1.30;;
12814;SDS011;6472;52.328;13.070;2024-01-15T09:57:06;1.60;;;1.50;;
12814;SDS011;6472;52.328;13.070;2024-01-15T09:59:37;1.20;;;1.13;;
12814;SDS011;6472;52.328;13.070;2024-01-15T10:02:07;1.40;;;1.20;;
12814;SDS011;6472;52.328;13.070;2024-01-15T10:04:35;3.00;;;1.37;;
12814;SDS011;6472;52.328;13.070;2024-01-15T10:07:04;4.30;;;1.73;;
12814;SDS011;6472;52.328;13.070;2024-01-15T10:09:33;1.10;;;1.10;;
12814;SDS011;6472;52.328;13.070;2024-01-15T10:12:03;1.83;;;1.20;;
12814;SDS011;6472;52.328;13.070;2024-01-15T10:14:32;2.10;;;1.70;;
12814;SDS011;6472;52.328;13.070;2024-01-15T10:17:00;4.47;;;1.70;;
12814;SDS011;6472;52.328;13.070;2024-01-15T10:19:36;4.13;;;1.83;;
12814;SDS011;6472;52.328;13.070;2024-01-15T10:22:04;1.30;;;1.30;;
12814;SDS011;6472;52.328;13.070;2024-01-15T10:24:36;3.50;;;1.57;;
12814;SDS011;6472;52.328;13.070;2024-01-15T10:27:06;0.97;;;0.90;;
12814;SDS011;6472;52.328;13.070;2024-01-15T10:29:36;2.70;;;2.00;;
12814;SDS011;6472;52.328;13.070;2024-01-15T10:32:06;2.73;;;2.20;;
12814;SDS011;6472;52.328;13.070;2024-01-15T10:34:37;3.20;;;1.13;;
12814;SDS011;6472;52.328;13.070;2024-01-15T10:37:07;6.23;;;1.60;;
12814;SDS011;6472;52.328;13.070;2024-01-15T10:39:35;2.73;;;1.13;;
12814;SDS011;6472;52.328;13.070;2024-01-15T10:42:04;1.60;;;1.50;;
12814;SDS011;6472;52.328;13.070;2024-01-15T10:44:34;1.20;;;1.00;;
12814;SDS011;6472;52.328;13.070;2024-01-15T10:47:03;2.17;;;1.97;;
12814;SDS011;6472;52.328;13.070;2024-01-15T10:49:31;3.23;;;1.33;;
12814;SDS011;6472;52.328;13.070;2024-01-15T10:52:00;3.20;;;1.33;;
12814;SDS011;6472;52.328;13.070;2024-01-15T10:54:30;0.73;;;0.73;;
12814;SDS011;6472;52.328;13.070;2024-01-15T10:56:59;1.37;;;1.27;;
12814;SDS011;6472;52.328;13.070;2024-01-15T10:59:30;3.00;;;1.33;;
12814;SDS011;6472;52.328;13.070;2024-01-15T11:02:00;3.30;;;1.50;;
12814;SDS011;6472;52.328;13.070;2024-01-15T11:04:28;3.17;;;1.30;;
12814;SDS011;6472;52.328;13.070;2024-01-15T11:06:59;2.30;;;1.20;;
12814;SDS011;6472;52.328;13.070;2024-01-15T11:09:30;2.97;;;1.53;;
12814;SDS011;6472;52.328;13.070;2024-01-15T11:12:06;2.90;;;2.00;;
12814;SDS011;6472;52.328;13.070;2024-01-15T11:14:39;4.20;;;2.50;;
12814;SDS011;6472;52.328;13.070;2024-01-15T11:17:10;3.30;;;2.00;;
12814;SDS011;6472;52.328;13.070;2024-01-15T11:19:42;2.87;;;1.90;;
12814;SDS011;6472;52.328;13.070;2024-01-15T11:25:18;2.40;;;2.20;;
12814;SDS011;6472;52.328;13.070;2024-01-15T11:27:47;4.33;;;2.20;;
12814;SDS011;6472;52.328;13.070;2024-01-15T11:30:19;2.23;;;2.10;;
12814;SDS011;6472;52.328;13.070;2024-01-15T11:32:52;3.47;;;2.07;;
12814;SDS011;6472;52.328;13.070;2024-01-15T11:35:21;3.23;;;2.50;;
12814;SDS011;6472;52.328;13.070;2024-01-15T11:37:57;4.67;;;2.73;;
12814;SDS011;6472;52.328;13.070;2024-01-15T11:40:36;2.70;;;2.50;;
12814;SDS011;6472;52.328;13.070;2024-01-15T11:43:05;2.60;;;2.33;;
12814;SDS011;6472;52.328;13.070;2024-01-15T11:45:37;2.33;;;1.93;;
12814;SDS011;6472;52.328;13.070;2024-01-15T11:48:13;2.47;;;2.27;;
12814;SDS011;6472;52.328;13.070;2024-01-15T11:50:45;2.50;;;2.00;;
12814;SDS011;6472;52.328;13.070;2024-01-15T11:53:17;2.93;;;2.63;;
12814;SDS011;6472;52.328;13.070;2024-01-15T11:55:48;2.23;;;1.97;;
12814;SDS011;6472;52.328;13.070;2024-01-15T11:58:19;2.57;;;2.37;;
12814;SDS011;6472;52.328;13.070;2024-01-15T12:00:52;2.67;;;2.43;;
12814;SDS011;6472;52.328;13.070;2024-01-15T12:03:21;1.43;;;1.33;;
12814;SDS011;6472;52.328;13.070;2024-01-15T12:05:49;5.13;;;2.30;;
12814;SDS011;6472;52.328;13.070;2024-01-15T12:08:22;3.20;;;1.97;;
12814;SDS011;6472;52.328;13.070;2024-01-15T12:10:51;3.43;;;1.80;;
12814;SDS011;6472;52.328;13.070;2024-01-15T12:13:20;2.43;;;1.80;;
12814;SDS011;6472;52.328;13.070;2024-01-15T12:15:49;2.30;;;1.77;;
12814;SDS011;6472;52.328;13.070;2024-01-15T12:18:18;3.17;;;2.13;;
12814;SDS011;6472;52.328;13.070;2024-01-15T12:20:47;1.43;;;1.20;;
12814;SDS011;6472;52.328;13.070;2024-01-15T12:23:16;3.53;;;1.60;;
12814;SDS011;6472;52.328;13.070;2024-01-15T12:25:44;1.80;;;1.70;;
12814;SDS011;6472;52.328;13.070;2024-01-15T12:28:13;1.57;;;1.47;;
12814;SDS011;6472;52.328;13.070;2024-01-15T12:30:46;1.30;;;1.20;;
12814;SDS011;6472;52.328;13.070;2024-01-15T12:33:18;2.37;;;1.53;;
12814;SDS011;6472;52.328;13.070;2024-01-15T12:35:47;3.13;;;1.60;;
12814;SDS011;6472;52.328;13.070;2024-01-15T12:38:18;1.57;;;1.40;;
12814;SDS011;6472;52.328;13.070;2024-01-15T12:40:46;0.70;;;0.70;;
12814;SDS011;6472;52.328;13.070;2024-01-15T12:43:15;1.87;;;1.77;;
12814;SDS011;6472;52.328;13.070;2024-01-15T12:45:44;1.43;;;1.20;;
12814;SDS011;6472;52.328;13.070;2024-01-15T12:48:13;1.13;;;1.13;;
12814;SDS011;6472;52.328;13.070;2024-01-15T12:50:46;0.90;;;0.90;;
12814;SDS011;6472;52.328;13.070;2024-01-15T12:53:14;4.87;;;1.87;;
12814;SDS011;6472;52.328;13.070;2024-01-15T12:55:43;1.63;;;1.53;;
12814;SDS011;6472;52.328;13.070;2024-01-15T12:58:14;6.37;;;2.23;;
12814;SDS011;6472;52.328;13.070;2024-01-15T13:00:45;2.80;;;1.47;;
12814;SDS011;6472;52.328;13.070;2024-01-15T13:03:14;3.07;;;1.83;;
12814;SDS011;6472;52.328;13.070;2024-01-15T13:05:43;2.73;;;1.73;;
12814;SDS011;6472;52.328;13.070;2024-01-15T13:08:13;2.53;;;1.83;;
12814;SDS011;6472;52.328;13.070;2024-01-15T13:10:41;2.13;;;1.77;;
12814;SDS011;6472;52.328;13.070;2024-01-15T13:13:09;2.17;;;1.97;;
12814;SDS011;6472;52.328;13.070;2024-01-15T13:15:37;6.83;;;2.47;;
12814;SDS011;6472;52.328;13.070;2024-01-15T13:18:06;5.90;;;2.17;;
12814;SDS011;6472;52.328;13.070;2024-01-15T13:20:35;4.53;;;2.57;;
12814;SDS011;6472;52.328;13.070;2024-01-15T13:23:03;3.63;;;2.20;;
12814;SDS011;6472;52.328;13.070;2024-01-15T13:25:33;3.47;;;2.40;;
12814;SDS011;6472;52.328;13.070;2024-01-15T13:28:04;4.43;;;2.60;;
12814;SDS011;6472;52.328;13.070;2024-01-15T13:30:33;2.63;;;2.20;;
12814;SDS011;6472;52.328;13.070;2024-01-15T13:33:01;3.27;;;2.27;;
12814;SDS011;6472;52.328;13.070;2024-01-15T13:35:31;6.40;;;2.50;;
12814;SDS011;6472;52.328;13.070;2024-01-15T13:37:59;3.13;;;2.07;;
12814;SDS011;6472;52.328;13.070;2024-01-15T13:40:27;5.60;;;1.73;;
12814;SDS011;6472;52.328;13.070;2024-01-15T13:42:56;3.13;;;1.70;;
12814;SDS011;6472;52.328;13.070;2024-01-15T13:45:24;7.90;;;2.37;;
12814;SDS011;6472;52.328;13.070;2024-01-15T13:47:52;4.07;;;2.20;;
12814;SDS011;6472;52.328;13.070;2024-01-15T13:50:20;4.13;;;2.40;;
12814;SDS011;6472;52.328;13.070;2024-01-15T13:52:51;3.33;;;1.90;;
12814;SDS011;6472;52.328;13.070;2024-01-15T13:55:19;2.10;;;1.43;;
12814;SDS011;6472;52.328;13.070;2024-01-15T13:57:47;2.13;;;1.80;;
12814;SDS011;6472;52.328;13.070;2024-01-15T14:00:17;7.67;;;1.90;;
12814;SDS011;6472;52.328;13.070;2024-01-15T14:02:46;4.43;;;1.43;;
12814;SDS011;6472;52.328;13.070;2024-01-15T14:05:14;1.73;;;1.37;;
12814;SDS011;6472;52.328;13.070;2024-01-15T14:07:42;5.63;;;2.13;;
12814;SDS011;6472;52.328;13.070;2024-01-15T14:10:10;5.90;;;2.13;;
12814;SDS011;6472;52.328;13.070;2024-01-15T14:12:38;5.03;;;1.90;;
12814;SDS011;6472;52.328;13.070;2024-01-15T14:15:07;5.53;;;1.97;;
12814;SDS011;6472;52.328;13.070;2024-01-15T14:17:37;3.43;;;1.63;;
12814;SDS011;6472;52.328;13.070;2024-01-15T14:20:06;7.27;;;2.17;;
12814;SDS011;6472;52.328;13.070;2024-01-15T14:22:36;4.07;;;1.50;;
12814;SDS011;6472;52.328;13.070;2024-01-15T14:25:04;4.23;;;1.77;;
12814;SDS011;6472;52.328;13.070;2024-01-15T14:27:32;13.00;;;2.00;;
12814;SDS011;6472;52.328;13.070;2024-01-15T14:30:00;2.57;;;1.47;;
12814;SDS011;6472;52.328;13.070;2024-01-15T14:32:28;4.00;;;1.97;;
12814;SDS011;6472;52.328;13.070;2024-01-15T14:34:58;2.20;;;1.83;;
12814;SDS011;6472;52.328;13.070;2024-01-15T14:37:26;8.60;;;2.23;;
12814;SDS011;6472;52.328;13.070;2024-01-15T14:39:55;4.50;;;1.83;;
12814;SDS011;6472;52.328;13.070;2024-01-15T14:42:23;4.40;;;1.60;;
12814;SDS011;6472;52.328;13.070;2024-01-15T14:44:52;3.23;;;1.97;;
12814;SDS011;6472;52.328;13.070;2024-01-15T14:47:20;1.93;;;1.63;;
12814;SDS011;6472;52.328;13.070;2024-01-15T14:49:50;8.03;;;2.90;;
12814;SDS011;6472;52.328;13.070;2024-01-15T14:52:20;5.80;;;2.10;;
12814;SDS011;6472;52.328;13.070;2024-01-15T14:54:48;4.60;;;2.10;;
12814;SDS011;6472;52.328;13.070;2024-01-15T14:57:16;10.43;;;2.30;;
12814;SDS011;6472;52.328;13.070;2024-01-15T14:59:44;4.17;;;2.27;;
12814;SDS011;6472;52.328;13.070;2024-01-15T15:02:12;3.23;;;1.97;;
12814;SDS011;6472;52.328;13.070;2024-01-15T15:04:41;4.00;;;2.53;;
12814;SDS011;6472;52.328;13.070;2024-01-15T15:07:14;4.67;;;2.97;;